In Rescue
 
Open Full Screen Window  High Contrast Mode
Wind Gusting 00 knots
03
July 23, 2019 12:38 AM CDT
Weather Information
Wind Direction
  290 °
Wind Speed
  03 kt (3 mph)
Wind Gust
  00 kt (0 mph)
Altimeter
30.14 in
Visibility
10 SM
Temperature
16° C
61° F
Dewpoint
10° C
50° F
Humidity
68%
1hr Rain Fall
00.00 in.
24hr Rain Fall
00.00 in.
Sky Condition
Clear
VFR

METAR KBFW 230538Z AUTO 29003KT 10SM CLR 16/10 A3014 RMK AO2

FAA Disclaimer: The data displayed is for advisory purposes only and is not to be used for flight planning or operations.